createdAt,value
2019-06-26T00:00:42.451Z,7.90
2019-06-26T00:01:42.555Z,6.60
2019-06-26T00:02:42.647Z,6.40
2019-06-26T00:03:42.977Z,6.30
2019-06-26T00:04:43.018Z,6.50
2019-06-26T00:05:43.150Z,6.10
2019-06-26T00:06:43.257Z,7.10
2019-06-26T00:07:43.453Z,6.70
2019-06-26T00:08:43.567Z,6.80
2019-06-26T00:09:43.724Z,8.40
2019-06-26T00:10:43.847Z,6.90
2019-06-26T00:11:43.961Z,6.70
2019-06-26T00:12:44.167Z,6.40
2019-06-26T00:13:44.249Z,8.00
2019-06-26T00:14:44.367Z,6.40
2019-06-26T00:15:44.663Z,6.60
2019-06-26T00:16:44.801Z,6.40
2019-06-26T00:17:44.937Z,6.30
2019-06-26T00:18:45.045Z,6.00
2019-06-26T00:19:45.315Z,6.60
2019-06-26T00:20:45.429Z,6.40
2019-06-26T00:21:45.573Z,5.90
2019-06-26T00:22:45.723Z,6.10
2019-06-26T00:23:45.819Z,6.50
2019-06-26T00:24:46.022Z,6.80
2019-06-26T00:25:46.128Z,6.40
2019-06-26T00:26:46.236Z,6.50
2019-06-26T00:27:46.454Z,6.70
2019-06-26T00:28:46.655Z,6.80
2019-06-26T00:29:46.822Z,7.40
2019-06-26T00:30:47.017Z,7.50
2019-06-26T00:31:47.142Z,6.40
2019-06-26T00:32:47.261Z,6.50
2019-06-26T00:33:47.481Z,6.60
2019-06-26T00:34:47.586Z,7.20
2019-06-26T00:35:47.747Z,6.50
2019-06-26T00:36:47.865Z,7.10
2019-06-26T00:37:47.945Z,7.10
2019-06-26T00:38:48.152Z,8.10
2019-06-26T00:39:48.263Z,6.70
2019-06-26T00:40:48.392Z,6.80
2019-06-26T00:41:48.567Z,7.70
2019-06-26T00:42:48.663Z,6.80
2019-06-26T00:43:48.952Z,6.60
2019-06-26T00:44:49.056Z,6.80
2019-06-26T00:45:49.192Z,7.50
2019-06-26T00:46:49.413Z,6.90
2019-06-26T00:47:49.641Z,8.20
2019-06-26T00:48:49.847Z,7.40
2019-06-26T00:49:49.942Z,6.30
2019-06-26T00:50:50.143Z,7.00
2019-06-26T00:51:50.262Z,7.50
2019-06-26T00:52:50.479Z,9.60
2019-06-26T00:53:50.610Z,7.40
2019-06-26T00:54:50.848Z,7.80
2019-06-26T00:55:50.983Z,7.50
2019-06-26T00:56:51.186Z,7.50
2019-06-26T00:57:51.415Z,7.40
2019-06-26T00:58:51.524Z,7.60
2019-06-26T00:59:51.617Z,7.30
2019-06-26T01:00:51.925Z,7.30
2019-06-26T01:01:52.083Z,7.60
2019-06-26T01:02:52.158Z,7.10
2019-06-26T01:03:52.521Z,7.30
2019-06-26T01:04:52.528Z,6.80
2019-06-26T01:05:52.635Z,7.10
2019-06-26T01:06:52.807Z,9.10
2019-06-26T01:07:53.068Z,7.60
2019-06-26T01:08:53.176Z,6.90
2019-06-26T01:09:53.258Z,7.40
2019-06-26T01:10:53.484Z,7.50
2019-06-26T01:11:53.571Z,7.80
2019-06-26T01:12:53.820Z,7.90
2019-06-26T01:13:58.097Z,6.60
2019-06-26T01:14:54.137Z,7.20
2019-06-26T01:15:54.353Z,7.70
2019-06-26T01:16:54.325Z,7.90
2019-06-26T01:17:54.524Z,7.40
2019-06-26T01:18:54.721Z,7.40
2019-06-26T01:19:55.007Z,9.40
2019-06-26T01:20:55.088Z,7.20
2019-06-26T01:21:55.419Z,7.60
2019-06-26T01:22:55.486Z,8.30
2019-06-26T01:23:55.645Z,7.60
2019-06-26T01:24:55.767Z,7.30
2019-06-26T01:25:55.855Z,7.50
2019-06-26T01:26:56.068Z,7.50
2019-06-26T01:27:56.346Z,7.50
2019-06-26T01:28:56.488Z,7.90
2019-06-26T01:29:56.565Z,7.50
2019-06-26T01:30:56.850Z,7.80
2019-06-26T01:31:57.118Z,8.70
2019-06-26T01:32:57.106Z,8.60
2019-06-26T01:33:57.354Z,7.90
2019-06-26T01:34:57.466Z,8.20
2019-06-26T01:35:57.604Z,7.30
2019-06-26T01:36:57.718Z,7.80
2019-06-26T01:37:57.841Z,7.20
2019-06-26T01:38:58.053Z,7.60
2019-06-26T01:39:58.228Z,7.90
2019-06-26T01:40:58.469Z,7.90
2019-06-26T01:41:58.594Z,8.20
2019-06-26T01:42:58.784Z,8.10
2019-06-26T01:44:13.526Z,7.90
2019-06-26T01:44:59.003Z,7.80
2019-06-26T01:45:59.278Z,7.80
2019-06-26T01:46:59.414Z,7.70
2019-06-26T01:47:59.570Z,7.10
2019-06-26T01:48:59.655Z,7.50
2019-06-26T01:49:59.811Z,8.80
2019-06-26T01:51:00.024Z,7.80
2019-06-26T01:52:00.225Z,8.00
2019-06-26T01:53:00.430Z,8.60
2019-06-26T01:54:00.630Z,8.10
2019-06-26T01:55:00.805Z,8.10
2019-06-26T01:56:00.892Z,8.90
2019-06-26T01:57:01.107Z,7.20
2019-06-26T01:58:01.231Z,8.70
2019-06-26T01:59:01.395Z,7.90
2019-06-26T02:00:01.622Z,11.20
2019-06-26T02:01:01.781Z,8.60
2019-06-26T02:02:01.809Z,8.30
2019-06-26T02:03:02.205Z,7.70
2019-06-26T02:04:02.154Z,7.80
2019-06-26T02:05:02.455Z,9.00
2019-06-26T02:06:02.428Z,8.20
2019-06-26T02:07:02.655Z,8.70
2019-06-26T02:08:02.992Z,8.10
2019-06-26T02:09:03.007Z,8.00
2019-06-26T02:10:03.070Z,7.50
2019-06-26T02:11:03.203Z,9.10
2019-06-26T02:12:03.310Z,8.20
2019-06-26T02:13:03.510Z,8.10
2019-06-26T02:14:03.592Z,7.60
2019-06-26T02:15:03.825Z,9.10
2019-06-26T02:16:03.924Z,8.40
2019-06-26T02:17:04.131Z,8.90
2019-06-26T02:18:04.367Z,8.30
2019-06-26T02:19:04.478Z,8.50
2019-06-26T02:20:04.564Z,9.00
2019-06-26T02:21:04.747Z,8.20
2019-06-26T02:22:05.072Z,8.30
2019-06-26T02:23:05.671Z,8.20
2019-06-26T02:24:05.192Z,8.50
2019-06-26T02:25:05.414Z,9.80
2019-06-26T02:26:05.527Z,8.00
2019-06-26T02:27:05.746Z,7.90
2019-06-26T02:28:05.795Z,7.90
2019-06-26T02:29:05.942Z,9.90
2019-06-26T02:30:06.236Z,9.30
2019-06-26T02:31:06.329Z,8.30
2019-06-26T02:32:06.617Z,8.30
2019-06-26T02:33:06.739Z,7.90
2019-06-26T02:34:06.836Z,9.10
2019-06-26T02:35:09.837Z,7.50
2019-06-26T02:36:07.271Z,8.60
2019-06-26T02:37:07.393Z,8.00
2019-06-26T02:38:07.541Z,8.30
2019-06-26T02:39:07.704Z,8.00
2019-06-26T02:40:07.889Z,8.20
2019-06-26T02:41:08.045Z,8.80
2019-06-26T02:42:08.285Z,8.50
2019-06-26T02:43:09.143Z,7.80
2019-06-26T02:44:08.642Z,8.80
2019-06-26T02:45:08.854Z,9.30
2019-06-26T02:46:09.022Z,7.70
2019-06-26T02:47:19.384Z,8.30
2019-06-26T02:48:09.217Z,8.30
2019-06-26T02:49:09.393Z,8.00
2019-06-26T02:50:09.522Z,8.40
2019-06-26T02:51:09.919Z,8.40
2019-06-26T02:52:10.084Z,8.30
2019-06-26T02:53:10.102Z,7.90
2019-06-26T02:54:10.421Z,9.50
2019-06-26T02:55:10.475Z,9.10
2019-06-26T02:56:10.587Z,8.50
2019-06-26T02:57:10.743Z,8.70
2019-06-26T02:58:10.873Z,10.30
2019-06-26T02:59:11.009Z,8.00
2019-06-26T03:00:11.155Z,8.00
2019-06-26T03:01:11.379Z,9.70
2019-06-26T03:02:11.481Z,7.70
2019-06-26T03:03:11.672Z,8.00
2019-06-26T03:04:11.879Z,9.50
2019-06-26T03:05:12.065Z,9.70
2019-06-26T03:06:12.248Z,10.50
2019-06-26T03:07:12.398Z,8.90
2019-06-26T03:08:12.478Z,7.90
2019-06-26T03:09:12.693Z,8.30
2019-06-26T03:10:12.715Z,9.30
2019-06-26T03:11:12.928Z,10.00
2019-06-26T03:12:13.477Z,8.70
2019-06-26T03:13:13.705Z,8.80
2019-06-26T03:14:13.522Z,7.90
2019-06-26T03:15:13.741Z,9.90
2019-06-26T03:16:13.953Z,9.40
2019-06-26T03:17:14.073Z,10.30
2019-06-26T03:18:14.317Z,9.00
2019-06-26T03:19:14.431Z,10.10
2019-06-26T03:20:14.640Z,8.90
2019-06-26T03:21:14.768Z,9.20
2019-06-26T03:22:14.947Z,8.80
2019-06-26T03:23:15.186Z,10.10
2019-06-26T03:24:15.230Z,8.70
2019-06-26T03:25:15.381Z,8.60
2019-06-26T03:26:15.416Z,8.90
2019-06-26T03:27:15.509Z,8.90
2019-06-26T03:28:15.697Z,9.80
2019-06-26T03:29:15.813Z,9.00
2019-06-26T03:30:16.079Z,11.30
2019-06-26T03:31:16.169Z,9.00
2019-06-26T03:32:16.262Z,8.90
2019-06-26T03:33:16.511Z,9.60
2019-06-26T03:34:16.631Z,8.00
2019-06-26T03:35:16.755Z,8.50
2019-06-26T03:36:17.046Z,8.20
2019-06-26T03:37:17.177Z,8.60
2019-06-26T03:38:17.280Z,8.30
2019-06-26T03:39:17.552Z,7.90
2019-06-26T03:40:17.887Z,8.90
2019-06-26T03:41:17.795Z,8.30
2019-06-26T03:42:18.060Z,8.90
2019-06-26T03:43:18.218Z,8.90
2019-06-26T03:44:18.364Z,8.70
2019-06-26T03:45:25.606Z,9.30
2019-06-26T03:46:18.751Z,8.60
2019-06-26T03:47:19.068Z,8.30
2019-06-26T03:48:19.142Z,9.10
2019-06-26T03:49:19.181Z,10.20
2019-06-26T03:50:19.302Z,8.40
2019-06-26T03:51:19.666Z,8.60
2019-06-26T03:52:19.699Z,9.70
2019-06-26T03:53:20.335Z,9.00
2019-06-26T03:54:20.318Z,9.70
2019-06-26T03:55:20.337Z,10.50
2019-06-26T03:56:20.319Z,9.30
2019-06-26T03:57:20.502Z,10.10
2019-06-26T03:58:20.728Z,11.00
2019-06-26T03:59:20.974Z,8.70
2019-06-26T04:00:21.122Z,9.50
2019-06-26T04:01:21.166Z,10.30
2019-06-26T04:02:21.301Z,10.40
2019-06-26T04:03:21.553Z,10.10
2019-06-26T04:04:21.551Z,8.50
2019-06-26T04:05:21.716Z,9.60
2019-06-26T04:06:22.009Z,9.60
2019-06-26T04:07:22.063Z,9.10
2019-06-26T04:08:22.282Z,9.30
2019-06-26T04:09:22.289Z,9.80
2019-06-26T04:10:22.623Z,11.70
2019-06-26T04:11:22.792Z,11.70
2019-06-26T04:12:22.887Z,11.10
2019-06-26T04:13:22.918Z,9.60
2019-06-26T04:14:23.042Z,10.70
2019-06-26T04:15:23.228Z,10.20
2019-06-26T04:16:23.490Z,11.50
2019-06-26T04:17:23.687Z,13.30
2019-06-26T04:18:23.797Z,10.00
2019-06-26T04:19:23.983Z,9.40
2019-06-26T04:20:24.066Z,9.10
2019-06-26T04:21:24.287Z,12.80
2019-06-26T04:22:24.513Z,9.70
2019-06-26T04:23:24.684Z,9.00
2019-06-26T04:24:24.885Z,11.10
2019-06-26T04:25:25.122Z,10.10
2019-06-26T04:26:25.234Z,8.90
2019-06-26T04:27:25.465Z,10.60
2019-06-26T04:28:25.729Z,9.30
2019-06-26T04:29:25.714Z,11.30
2019-06-26T04:30:25.814Z,9.40
2019-06-26T04:31:25.911Z,11.10
2019-06-26T04:32:26.149Z,9.20
2019-06-26T04:33:26.321Z,9.60
2019-06-26T04:34:26.723Z,10.60
2019-06-26T04:35:26.546Z,10.80
2019-06-26T04:36:28.302Z,10.20
2019-06-26T04:37:27.446Z,11.80
2019-06-26T04:38:29.617Z,12.00
2019-06-26T04:39:28.403Z,11.00
2019-06-26T04:40:30.223Z,11.10
2019-06-26T04:41:31.120Z,10.40
2019-06-26T04:42:29.926Z,10.50
2019-06-26T04:43:29.837Z,11.00
2019-06-26T04:44:29.402Z,12.50
2019-06-26T04:45:29.346Z,10.10
2019-06-26T04:46:29.738Z,11.10
2019-06-26T04:47:30.012Z,10.40
2019-06-26T04:48:29.459Z,10.30
2019-06-26T04:49:29.822Z,9.90
2019-06-26T04:50:30.774Z,10.20
2019-06-26T04:51:31.277Z,12.30
2019-06-26T04:52:31.418Z,10.10
2019-06-26T04:53:30.766Z,10.50
2019-06-26T04:54:30.631Z,10.40
2019-06-26T04:55:30.630Z,10.20
2019-06-26T04:56:31.530Z,12.20
2019-06-26T04:57:30.633Z,11.20
2019-06-26T04:58:30.898Z,10.60
2019-06-26T04:59:30.783Z,10.60
2019-06-26T05:00:31.694Z,10.80
2019-06-26T05:01:31.270Z,12.40
2019-06-26T05:02:31.269Z,10.70
2019-06-26T05:03:31.118Z,10.60
2019-06-26T05:04:33.198Z,10.30
2019-06-26T05:05:39.470Z,11.10
2019-06-26T05:06:31.581Z,10.80
2019-06-26T05:07:31.681Z,10.60
2019-06-26T05:08:31.905Z,9.90
2019-06-26T05:09:32.064Z,12.90
2019-06-26T05:10:33.465Z,11.70
2019-06-26T05:11:34.958Z,10.40
2019-06-26T05:12:32.407Z,9.70
2019-06-26T05:13:33.698Z,10.80
2019-06-26T05:14:32.679Z,9.70
2019-06-26T05:15:32.801Z,10.30
2019-06-26T05:16:33.032Z,11.60
2019-06-26T05:17:33.185Z,12.20
2019-06-26T05:18:33.330Z,12.40
2019-06-26T05:19:33.415Z,11.80
2019-06-26T05:20:33.606Z,10.00
2019-06-26T05:21:33.693Z,14.10
2019-06-26T05:22:33.933Z,11.70
2019-06-26T05:23:34.032Z,10.70
2019-06-26T05:24:34.164Z,10.60
2019-06-26T05:25:34.439Z,10.30
2019-06-26T05:26:34.607Z,12.10
2019-06-26T05:27:34.826Z,10.30
2019-06-26T05:28:35.002Z,12.40
2019-06-26T05:29:35.128Z,12.00
2019-06-26T05:30:35.356Z,10.00
2019-06-26T05:31:35.442Z,11.00
2019-06-26T05:32:35.599Z,13.10
2019-06-26T05:33:35.689Z,11.50
2019-06-26T05:34:35.961Z,11.00
2019-06-26T05:35:36.254Z,12.60
2019-06-26T05:36:36.312Z,11.70
2019-06-26T05:37:36.483Z,11.20
2019-06-26T05:38:36.575Z,10.50
2019-06-26T05:39:36.796Z,11.80
2019-06-26T05:40:36.968Z,11.50
2019-06-26T05:41:37.083Z,11.90
2019-06-26T05:42:37.289Z,11.70
2019-06-26T05:43:37.529Z,10.40
2019-06-26T05:44:37.652Z,11.70
2019-06-26T05:45:37.924Z,10.50
2019-06-26T05:46:38.034Z,11.30
2019-06-26T05:47:38.167Z,10.50
2019-06-26T05:48:38.338Z,10.20
2019-06-26T05:49:38.664Z,11.70
2019-06-26T05:50:38.814Z,10.60
2019-06-26T05:51:39.385Z,10.20
2019-06-26T05:52:42.462Z,10.60
2019-06-26T05:53:39.379Z,11.90
2019-06-26T05:54:39.241Z,12.00
2019-06-26T05:55:39.642Z,10.40
2019-06-26T05:56:39.838Z,9.70
2019-06-26T05:57:41.918Z,9.30
2019-06-26T05:58:40.067Z,10.70
2019-06-26T05:59:43.047Z,11.00
2019-06-26T06:00:40.232Z,10.20
2019-06-26T06:01:40.410Z,12.20
2019-06-26T06:02:40.557Z,10.20
2019-06-26T06:03:40.704Z,10.90
2019-06-26T06:04:41.234Z,10.40
2019-06-26T06:05:41.114Z,10.40
2019-06-26T06:06:42.369Z,11.20
2019-06-26T06:07:41.385Z,10.80
2019-06-26T06:08:41.510Z,10.80
2019-06-26T06:09:41.761Z,12.10
2019-06-26T06:10:41.855Z,10.50
2019-06-26T06:11:42.082Z,12.80
2019-06-26T06:12:42.193Z,10.70
2019-06-26T06:13:42.455Z,10.30
2019-06-26T06:14:42.734Z,10.90
2019-06-26T06:15:42.624Z,10.00
2019-06-26T06:16:47.771Z,10.50
2019-06-26T06:17:44.798Z,11.30
2019-06-26T06:18:44.235Z,10.60
2019-06-26T06:19:45.104Z,10.10
2019-06-26T06:20:44.459Z,12.30
2019-06-26T06:21:44.860Z,9.60
2019-06-26T06:22:48.887Z,10.30
2019-06-26T06:23:44.017Z,8.80
2019-06-26T06:24:44.231Z,8.50
2019-06-26T06:25:44.350Z,9.20
2019-06-26T06:26:44.517Z,9.40
2019-06-26T06:27:44.797Z,8.50
2019-06-26T06:28:44.947Z,9.00
2019-06-26T06:29:45.265Z,10.40
2019-06-26T06:30:45.132Z,9.20
2019-06-26T06:31:45.636Z,9.60
2019-06-26T06:32:45.737Z,9.80
2019-06-26T06:33:45.916Z,9.20
2019-06-26T06:34:46.114Z,8.50
2019-06-26T06:35:46.057Z,9.70
2019-06-26T06:36:46.453Z,8.90
2019-06-26T06:37:46.321Z,10.30
2019-06-26T06:38:46.602Z,9.30
2019-06-26T06:39:46.641Z,8.20
2019-06-26T06:40:46.764Z,8.80
2019-06-26T06:41:46.955Z,8.50
2019-06-26T06:42:47.254Z,9.70
2019-06-26T06:43:47.249Z,9.20
2019-06-26T06:44:47.523Z,9.70
2019-06-26T06:45:47.571Z,9.00
2019-06-26T06:47:02.867Z,8.30
2019-06-26T06:47:47.894Z,10.20
2019-06-26T06:48:48.053Z,7.80
2019-06-26T06:49:48.137Z,8.40
2019-06-26T06:50:48.264Z,8.60
2019-06-26T06:51:48.491Z,8.10
2019-06-26T06:52:48.715Z,8.10
2019-06-26T06:53:48.872Z,9.30
2019-06-26T06:54:49.141Z,7.80
2019-06-26T06:55:49.266Z,7.10
2019-06-26T06:56:49.319Z,7.30
2019-06-26T06:57:49.559Z,9.20
2019-06-26T06:58:49.655Z,6.50
2019-06-26T06:59:49.976Z,7.10
2019-06-26T07:00:50.114Z,9.40
2019-06-26T07:01:50.564Z,7.30
2019-06-26T07:02:50.323Z,6.60
2019-06-26T07:03:50.418Z,7.60
2019-06-26T07:04:50.642Z,6.70
2019-06-26T07:05:50.825Z,6.80
2019-06-26T07:06:51.020Z,7.00
2019-06-26T07:07:51.192Z,7.40
2019-06-26T07:08:51.305Z,6.40
2019-06-26T07:09:51.545Z,7.00
2019-06-26T07:10:51.735Z,7.70
2019-06-26T07:11:51.933Z,6.30
2019-06-26T07:12:52.152Z,6.90
2019-06-26T07:13:52.505Z,8.40
2019-06-26T07:14:52.475Z,6.90
2019-06-26T07:15:52.704Z,6.30
2019-06-26T07:16:52.809Z,6.70
2019-06-26T07:17:53.477Z,6.90
2019-06-26T07:18:53.176Z,6.20
2019-06-26T07:19:53.384Z,6.50
2019-06-26T07:20:53.561Z,6.40
2019-06-26T07:21:53.881Z,6.40
2019-06-26T07:22:54.043Z,6.90
2019-06-26T07:23:54.119Z,6.10
2019-06-26T07:24:54.323Z,6.40
2019-06-26T07:25:54.540Z,6.60
2019-06-26T07:26:54.729Z,5.70
2019-06-26T07:27:54.957Z,6.30
2019-06-26T07:28:55.281Z,5.80
2019-06-26T07:29:55.335Z,6.00
2019-06-26T07:30:55.595Z,6.40
2019-06-26T07:31:55.690Z,5.40
2019-06-26T07:32:55.887Z,5.40
2019-06-26T07:33:56.108Z,5.40
2019-06-26T07:34:56.310Z,5.60
2019-06-26T07:35:56.502Z,5.80
2019-06-26T07:36:56.719Z,5.50
2019-06-26T07:37:59.977Z,4.90
2019-06-26T07:38:58.147Z,5.60
2019-06-26T07:40:01.528Z,5.30
2019-06-26T07:40:57.509Z,7.10
2019-06-26T07:41:57.951Z,5.00
2019-06-26T07:42:57.874Z,5.20
2019-06-26T07:43:58.027Z,5.00
2019-06-26T07:44:58.199Z,5.60
2019-06-26T07:45:58.385Z,5.00
2019-06-26T07:46:58.578Z,5.40
2019-06-26T07:47:58.773Z,4.80
2019-06-26T07:48:58.952Z,5.20
2019-06-26T07:49:59.230Z,6.20
2019-06-26T07:50:59.335Z,5.00
2019-06-26T07:51:59.512Z,5.60
2019-06-26T07:52:59.699Z,5.20
2019-06-26T07:53:59.885Z,5.20
2019-06-26T07:55:00.143Z,5.10
2019-06-26T07:56:00.221Z,5.70
2019-06-26T07:57:00.515Z,5.00
2019-06-26T07:58:00.634Z,6.10
2019-06-26T07:59:00.827Z,4.60
2019-06-26T08:00:01.278Z,6.00
2019-06-26T08:01:01.339Z,6.80
2019-06-26T08:02:01.445Z,4.90
2019-06-26T08:03:04.173Z,5.10
2019-06-26T08:04:02.081Z,5.00
2019-06-26T08:05:01.979Z,5.00
2019-06-26T08:06:02.591Z,5.70
2019-06-26T08:07:02.484Z,5.80
2019-06-26T08:08:02.715Z,5.10
2019-06-26T08:09:02.879Z,5.40
2019-06-26T08:10:03.173Z,5.90
2019-06-26T08:11:06.330Z,7.80
2019-06-26T08:12:03.467Z,5.10
2019-06-26T08:13:03.473Z,6.70
2019-06-26T08:14:03.589Z,6.70
2019-06-26T08:15:03.609Z,4.80
2019-06-26T08:16:03.802Z,5.30
2019-06-26T08:17:04.132Z,4.60
2019-06-26T08:18:04.217Z,5.10
2019-06-26T08:19:04.420Z,4.80
2019-06-26T08:20:05.241Z,5.00
2019-06-26T08:21:11.907Z,4.70
2019-06-26T08:22:05.145Z,5.60
2019-06-26T08:23:05.296Z,9.60
2019-06-26T08:24:05.498Z,8.00
2019-06-26T08:25:05.694Z,4.90
2019-06-26T08:26:05.882Z,5.20
2019-06-26T08:27:06.145Z,4.60
2019-06-26T08:28:06.190Z,25.40
2019-06-26T08:29:06.395Z,6.60
2019-06-26T08:30:06.607Z,4.70
2019-06-26T08:31:07.050Z,4.90
2019-06-26T08:32:07.052Z,4.90
2019-06-26T08:33:07.249Z,4.70
2019-06-26T08:34:07.337Z,5.10
2019-06-26T08:35:07.534Z,4.80
2019-06-26T08:36:07.749Z,5.20
2019-06-26T08:37:07.994Z,5.00
2019-06-26T08:38:12.544Z,5.40
2019-06-26T08:39:08.533Z,5.30
2019-06-26T08:40:08.821Z,4.80
2019-06-26T08:41:08.851Z,5.10
2019-06-26T08:42:08.852Z,4.50
2019-06-26T08:43:09.225Z,4.90
2019-06-26T08:44:09.434Z,4.80
2019-06-26T08:45:10.027Z,4.90
2019-06-26T08:46:09.622Z,4.90
2019-06-26T08:47:09.814Z,4.80
2019-06-26T08:48:22.745Z,4.70
2019-06-26T08:49:24.434Z,4.60
2019-06-26T08:50:10.460Z,4.50
2019-06-26T08:51:10.629Z,5.10
2019-06-26T08:52:11.116Z,5.60
2019-06-26T08:53:10.965Z,4.60
2019-06-26T08:54:11.151Z,5.60
2019-06-26T08:55:11.473Z,4.50
2019-06-26T08:56:11.653Z,6.10
2019-06-26T08:57:11.815Z,5.20
2019-06-26T08:58:12.509Z,4.30
2019-06-26T08:59:12.175Z,4.60
2019-06-26T09:00:12.263Z,5.50
2019-06-26T09:01:12.565Z,4.90
2019-06-26T09:02:12.823Z,4.30
2019-06-26T09:03:12.941Z,4.70
2019-06-26T09:04:13.047Z,5.20
2019-06-26T09:05:13.249Z,5.00
2019-06-26T09:06:13.433Z,5.00
2019-06-26T09:07:13.936Z,5.10
2019-06-26T09:08:13.943Z,4.40
2019-06-26T09:09:14.029Z,4.60
2019-06-26T09:10:14.265Z,5.00
2019-06-26T09:11:14.501Z,5.00
2019-06-26T09:12:14.638Z,4.70
2019-06-26T09:13:15.027Z,4.90
2019-06-26T09:14:15.047Z,5.00
2019-06-26T09:15:15.321Z,5.00
2019-06-26T09:16:15.391Z,4.80
2019-06-26T09:17:15.603Z,4.90
2019-06-26T09:18:15.793Z,6.30
2019-06-26T09:19:15.983Z,5.30
2019-06-26T09:20:16.242Z,4.80
2019-06-26T09:21:16.408Z,5.50
2019-06-26T09:22:16.596Z,4.80
2019-06-26T09:23:16.790Z,4.80
2019-06-26T09:24:17.010Z,4.70
2019-06-26T09:25:22.221Z,5.20
2019-06-26T09:26:17.399Z,5.10
2019-06-26T09:27:17.636Z,5.10
2019-06-26T09:28:17.839Z,4.30
2019-06-26T09:29:18.033Z,4.60
2019-06-26T09:30:18.203Z,4.90
2019-06-26T09:31:18.398Z,4.50
2019-06-26T09:32:18.577Z,5.00
2019-06-26T09:33:18.932Z,4.70
2019-06-26T09:34:19.004Z,4.60
2019-06-26T09:35:19.197Z,4.40
2019-06-26T09:36:19.362Z,4.40
2019-06-26T09:37:19.562Z,4.40
2019-06-26T09:38:19.783Z,4.30
2019-06-26T09:39:20.140Z,4.50
2019-06-26T09:40:20.236Z,5.80
2019-06-26T09:41:20.426Z,4.90
2019-06-26T09:42:20.635Z,4.70
2019-06-26T09:43:20.829Z,4.70
2019-06-26T09:44:21.020Z,4.30
2019-06-26T09:45:21.232Z,4.80
2019-06-26T09:46:21.423Z,4.70
2019-06-26T09:47:21.611Z,4.90
2019-06-26T09:48:21.810Z,4.80
2019-06-26T09:49:22.028Z,4.50
2019-06-26T09:50:22.209Z,4.40
2019-06-26T09:51:22.308Z,4.50
2019-06-26T09:52:22.486Z,4.60
2019-06-26T09:53:22.730Z,4.30
2019-06-26T09:54:22.842Z,4.40
2019-06-26T09:55:23.413Z,5.40
2019-06-26T09:56:23.299Z,4.60
2019-06-26T09:57:23.512Z,4.80
2019-06-26T09:58:23.748Z,4.10
2019-06-26T09:59:24.219Z,4.10
2019-06-26T10:00:24.322Z,4.60
2019-06-26T10:01:24.506Z,4.60
2019-06-26T10:02:24.772Z,4.40
2019-06-26T10:03:24.644Z,4.00
2019-06-26T10:04:24.879Z,3.80
2019-06-26T10:05:25.215Z,4.60
2019-06-26T10:06:25.289Z,3.40
2019-06-26T10:07:25.205Z,3.40
2019-06-26T10:08:25.871Z,3.50
2019-06-26T10:09:25.799Z,3.20
2019-06-26T10:10:25.862Z,4.30
2019-06-26T10:11:26.280Z,4.20
2019-06-26T10:12:26.516Z,5.00
2019-06-26T10:13:26.485Z,3.30
2019-06-26T10:14:45.538Z,3.00
2019-06-26T10:15:27.397Z,4.20
2019-06-26T10:16:29.877Z,3.50
2019-06-26T10:17:27.088Z,3.40
2019-06-26T10:18:27.319Z,3.20
2019-06-26T10:19:27.491Z,3.00
2019-06-26T10:20:28.112Z,3.80
2019-06-26T10:21:27.575Z,3.40
2019-06-26T10:22:27.875Z,2.90
2019-06-26T10:23:28.089Z,4.50
2019-06-26T10:24:30.442Z,3.00
2019-06-26T10:25:28.666Z,3.60
2019-06-26T10:26:32.206Z,4.60
2019-06-26T10:27:28.921Z,3.40
2019-06-26T10:28:29.058Z,4.10
2019-06-26T10:29:30.894Z,4.70
2019-06-26T10:30:30.847Z,3.80
2019-06-26T10:31:30.486Z,3.70
2019-06-26T10:32:29.556Z,3.70
2019-06-26T10:33:29.869Z,6.20
2019-06-26T10:34:30.342Z,3.10
2019-06-26T10:35:30.190Z,3.40
2019-06-26T10:36:30.681Z,4.80
2019-06-26T10:37:32.175Z,3.50
2019-06-26T10:38:31.124Z,3.50
2019-06-26T10:39:31.153Z,3.40
2019-06-26T10:40:31.390Z,3.10
2019-06-26T10:41:34.095Z,3.40
2019-06-26T10:42:32.088Z,3.50
2019-06-26T10:43:32.071Z,3.80
2019-06-26T10:44:32.455Z,4.10
2019-06-26T10:45:35.922Z,3.30
2019-06-26T10:46:32.662Z,3.00
2019-06-26T10:47:33.171Z,3.80
2019-06-26T10:48:33.217Z,3.40
2019-06-26T10:49:33.252Z,4.40
2019-06-26T10:50:33.355Z,3.80
2019-06-26T10:51:33.681Z,3.20
2019-06-26T10:52:36.516Z,3.90
2019-06-26T10:53:33.993Z,3.10
2019-06-26T10:54:34.153Z,2.90
2019-06-26T10:55:34.064Z,5.10
2019-06-26T10:56:34.361Z,3.20
2019-06-26T10:57:34.470Z,3.10
2019-06-26T10:58:34.454Z,4.10
2019-06-26T10:59:35.078Z,4.10
2019-06-26T11:00:35.769Z,4.30
2019-06-26T11:01:36.051Z,4.90
2019-06-26T11:02:36.297Z,3.50
2019-06-26T11:03:35.610Z,3.70
2019-06-26T11:04:35.494Z,4.40
2019-06-26T11:05:35.735Z,3.70
2019-06-26T11:06:37.178Z,3.80
2019-06-26T11:07:36.698Z,3.00
2019-06-26T11:08:36.408Z,2.70
2019-06-26T11:09:36.581Z,3.10
2019-06-26T11:10:36.802Z,3.20
2019-06-26T11:11:37.025Z,3.50
2019-06-26T11:12:37.232Z,5.50
2019-06-26T11:13:37.419Z,3.60
2019-06-26T11:14:37.620Z,4.10
2019-06-26T11:15:37.853Z,4.20
2019-06-26T11:16:38.110Z,2.90
2019-06-26T11:17:38.157Z,3.00
2019-06-26T11:18:38.270Z,3.50
2019-06-26T11:19:43.746Z,3.20
2019-06-26T11:20:38.603Z,2.80
2019-06-26T11:21:39.074Z,2.90
2019-06-26T11:22:39.065Z,3.90
2019-06-26T11:23:39.292Z,3.00
2019-06-26T11:24:39.624Z,4.60
2019-06-26T11:25:39.620Z,4.90
2019-06-26T11:26:39.819Z,3.90
2019-06-26T11:27:40.034Z,3.70
2019-06-26T11:28:40.514Z,4.40
2019-06-26T11:29:40.566Z,3.70
2019-06-26T11:30:40.646Z,5.30
2019-06-26T11:31:41.139Z,5.70
2019-06-26T11:32:40.991Z,3.30
2019-06-26T11:33:41.559Z,3.60
2019-06-26T11:34:42.371Z,4.10
2019-06-26T11:35:41.805Z,7.00
2019-06-26T11:36:41.773Z,4.00
2019-06-26T11:37:42.309Z,5.80
2019-06-26T11:38:42.208Z,3.60
2019-06-26T11:39:42.305Z,5.10
2019-06-26T11:40:42.379Z,3.50
2019-06-26T11:41:42.653Z,3.70
2019-06-26T11:42:42.782Z,4.00
2019-06-26T11:43:42.832Z,3.90
2019-06-26T11:44:43.113Z,3.90
2019-06-26T11:45:43.325Z,5.70
2019-06-26T11:46:43.408Z,4.90
2019-06-26T11:47:45.910Z,4.20
2019-06-26T11:48:43.853Z,5.20
2019-06-26T11:49:59.007Z,4.40
2019-06-26T11:50:44.269Z,5.30
2019-06-26T11:51:44.424Z,4.80
2019-06-26T11:52:44.779Z,4.90
2019-06-26T11:53:44.897Z,5.20
2019-06-26T11:55:01.128Z,5.40
2019-06-26T11:55:46.091Z,5.00
2019-06-26T11:56:47.589Z,6.40
2019-06-26T11:57:46.444Z,5.70
2019-06-26T11:58:46.949Z,6.10
2019-06-26T11:59:48.335Z,5.20
2019-06-26T12:00:46.732Z,5.90
2019-06-26T12:01:46.233Z,4.80
2019-06-26T12:02:46.953Z,3.90
2019-06-26T12:03:47.940Z,4.10
2019-06-26T12:04:46.871Z,4.80
2019-06-26T12:05:46.973Z,6.40
2019-06-26T12:06:47.221Z,4.20
2019-06-26T12:07:47.585Z,5.40
2019-06-26T12:08:47.687Z,4.00
2019-06-26T12:09:47.869Z,5.40
2019-06-26T12:10:48.091Z,4.40
2019-06-26T12:11:48.590Z,4.80
2019-06-26T12:12:48.503Z,5.70
2019-06-26T12:13:48.643Z,5.00
2019-06-26T12:14:50.048Z,3.90
2019-06-26T12:15:48.821Z,6.50
2019-06-26T12:16:48.869Z,6.30
2019-06-26T12:17:49.146Z,6.40
2019-06-26T12:18:49.223Z,4.90
2019-06-26T12:19:49.402Z,5.70
2019-06-26T12:20:49.591Z,5.80
2019-06-26T12:21:49.963Z,4.80
2019-06-26T12:22:49.989Z,6.90
2019-06-26T12:23:50.085Z,4.50
2019-06-26T12:24:50.512Z,4.10
2019-06-26T12:25:50.549Z,6.70
2019-06-26T12:26:50.823Z,7.00
2019-06-26T12:27:50.827Z,5.30
2019-06-26T12:28:50.947Z,4.90
2019-06-26T12:29:51.427Z,5.90
2019-06-26T12:30:51.400Z,4.20
2019-06-26T12:31:51.528Z,5.90
2019-06-26T12:33:02.246Z,5.60
2019-06-26T12:33:51.856Z,6.20
2019-06-26T12:34:51.925Z,5.70
2019-06-26T12:35:52.351Z,6.30
2019-06-26T12:36:52.386Z,8.30
2019-06-26T12:37:52.612Z,5.40
2019-06-26T12:38:52.882Z,6.10
2019-06-26T12:39:52.911Z,8.60
2019-06-26T12:40:53.184Z,6.20
2019-06-26T12:41:53.466Z,4.40
2019-06-26T12:42:55.671Z,4.80
2019-06-26T12:43:53.803Z,4.10
2019-06-26T12:44:53.837Z,5.30
2019-06-26T12:45:54.142Z,7.50
2019-06-26T12:46:54.243Z,6.80
2019-06-26T12:47:54.792Z,5.00
2019-06-26T12:48:54.764Z,5.00
2019-06-26T12:49:55.001Z,7.80
2019-06-26T12:50:55.384Z,7.60
2019-06-26T12:51:55.076Z,5.00
2019-06-26T12:52:55.386Z,6.80
2019-06-26T12:53:58.437Z,8.00
2019-06-26T12:54:55.941Z,5.50
2019-06-26T12:55:56.252Z,6.10
2019-06-26T12:56:56.263Z,5.70
2019-06-26T12:58:11.928Z,5.90
2019-06-26T12:58:59.711Z,6.90
2019-06-26T12:59:58.047Z,6.90
2019-06-26T13:00:56.685Z,7.00
2019-06-26T13:01:57.041Z,5.50
2019-06-26T13:02:57.277Z,8.00
2019-06-26T13:03:57.522Z,6.30
2019-06-26T13:04:57.787Z,6.60
2019-06-26T13:05:57.777Z,7.10
2019-06-26T13:06:59.082Z,7.60
2019-06-26T13:07:58.087Z,7.30
2019-06-26T13:08:58.319Z,6.50
2019-06-26T13:09:58.335Z,6.90
2019-06-26T13:10:58.710Z,5.20
2019-06-26T13:11:59.185Z,8.60
2019-06-26T13:12:59.119Z,6.40
2019-06-26T13:14:02.916Z,6.50
2019-06-26T13:14:59.397Z,6.80
2019-06-26T13:15:59.455Z,7.50